createdAt,value
2022-12-18T00:01:32.274Z,-7.21
2022-12-18T00:04:00.578Z,-7.34
2022-12-18T00:06:30.499Z,-7.37
2022-12-18T00:08:59.440Z,-7.49
2022-12-18T00:11:29.237Z,-7.46
2022-12-18T00:14:00.068Z,-7.53
2022-12-18T00:16:29.011Z,-7.57
2022-12-18T00:19:01.323Z,-7.72
2022-12-18T00:21:29.958Z,-7.79
2022-12-18T00:23:58.178Z,-7.85
2022-12-18T00:26:27.683Z,-7.92
2022-12-18T00:28:56.690Z,-7.95
2022-12-18T00:31:26.942Z,-7.91
2022-12-18T00:33:56.063Z,-7.96
2022-12-18T00:36:25.347Z,-8.15
2022-12-18T00:38:53.546Z,-8.20
2022-12-18T00:41:35.283Z,-8.14
2022-12-18T00:44:03.216Z,-8.24
2022-12-18T00:46:32.628Z,-8.33
2022-12-18T00:49:00.837Z,-8.37
2022-12-18T00:51:28.984Z,-8.30
2022-12-18T00:53:57.055Z,-8.38
2022-12-18T00:56:25.139Z,-8.46
2022-12-18T00:58:53.051Z,-8.75
2022-12-18T01:01:21.512Z,-9.08
2022-12-18T01:03:50.902Z,-9.07
2022-12-18T01:06:18.862Z,-9.11
2022-12-18T01:08:46.896Z,-9.23
2022-12-18T01:11:16.931Z,-9.14
2022-12-18T01:13:45.074Z,-9.26
2022-12-18T01:16:14.256Z,-9.28
2022-12-18T01:18:42.212Z,-9.25
2022-12-18T01:21:12.800Z,-9.10
2022-12-18T01:23:40.987Z,-9.18
2022-12-18T01:26:10.415Z,-9.24
2022-12-18T01:28:38.349Z,-9.45
2022-12-18T01:31:15.482Z,-9.60
2022-12-18T01:33:43.623Z,-9.51
2022-12-18T01:36:18.824Z,-9.51
2022-12-18T01:38:46.977Z,-9.44
2022-12-18T01:41:15.348Z,-9.47
2022-12-18T01:43:48.055Z,-9.49
2022-12-18T01:46:16.106Z,-9.53
2022-12-18T01:48:45.145Z,-9.52
2022-12-18T01:51:13.724Z,-9.57
2022-12-18T01:53:43.883Z,-9.53
2022-12-18T01:56:15.272Z,-9.33
2022-12-18T01:58:49.187Z,-9.34
2022-12-18T02:01:17.528Z,-9.48
2022-12-18T02:03:45.864Z,-9.68
2022-12-18T02:06:18.054Z,-9.70
2022-12-18T02:09:00.247Z,-9.71
2022-12-18T02:11:39.466Z,-9.79
2022-12-18T02:14:20.779Z,-10.02
2022-12-18T02:16:54.620Z,-10.09
2022-12-18T02:19:47.529Z,-10.13
2022-12-18T02:22:26.531Z,-10.23
2022-12-18T02:25:03.531Z,-10.22
2022-12-18T02:27:34.712Z,-10.11
2022-12-18T02:30:03.709Z,-9.70
2022-12-18T02:32:37.535Z,-9.72
2022-12-18T02:35:07.668Z,-9.95
2022-12-18T02:37:36.384Z,-10.24
2022-12-18T02:40:06.231Z,-10.41
2022-12-18T02:42:35.534Z,-10.45
2022-12-18T02:45:03.467Z,-10.61
2022-12-18T02:47:33.785Z,-10.61
2022-12-18T02:50:07.672Z,-10.71
2022-12-18T02:52:41.428Z,-10.62
2022-12-18T02:55:18.148Z,-10.62
2022-12-18T02:57:52.258Z,-10.62
2022-12-18T03:00:22.488Z,-10.58
2022-12-18T03:02:56.190Z,-10.56
2022-12-18T03:05:28.507Z,-10.53
2022-12-18T03:08:00.110Z,-10.63
2022-12-18T03:10:31.146Z,-10.72
2022-12-18T03:13:04.957Z,-10.85
2022-12-18T03:15:35.992Z,-10.84
2022-12-18T03:18:06.583Z,-10.94
2022-12-18T03:20:37.093Z,-11.06
2022-12-18T03:23:10.035Z,-11.19
2022-12-18T03:25:41.279Z,-11.11
2022-12-18T03:28:12.409Z,-11.11
2022-12-18T03:30:42.031Z,-11.04
2022-12-18T03:33:13.007Z,-11.04
2022-12-18T03:35:42.664Z,-10.92
2022-12-18T03:38:11.757Z,-10.82
2022-12-18T03:40:47.873Z,-10.73
2022-12-18T03:43:22.196Z,-10.65
2022-12-18T03:45:53.759Z,-10.79
2022-12-18T03:48:26.494Z,-10.78
2022-12-18T03:50:58.562Z,-10.82
2022-12-18T03:53:33.834Z,-10.85
2022-12-18T03:56:03.424Z,-11.16
2022-12-18T03:58:34.342Z,-11.15
2022-12-18T04:01:04.507Z,-11.20
2022-12-18T04:03:34.050Z,-11.20
2022-12-18T04:06:03.077Z,-11.30
2022-12-18T04:08:31.579Z,-11.38
2022-12-18T04:10:59.476Z,-11.30
2022-12-18T04:13:30.535Z,-11.20
2022-12-18T04:16:00.143Z,-11.33
2022-12-18T04:18:28.139Z,-11.45
2022-12-18T04:20:56.403Z,-11.49
2022-12-18T04:23:24.472Z,-11.60
2022-12-18T04:25:52.375Z,-11.72
2022-12-18T04:28:20.382Z,-11.67
2022-12-18T04:30:51.929Z,-11.74
2022-12-18T04:33:21.478Z,-11.83
2022-12-18T04:35:49.384Z,-11.76
2022-12-18T04:38:17.319Z,-11.78
2022-12-18T04:40:45.559Z,-11.83
2022-12-18T04:43:13.491Z,-11.78
2022-12-18T04:45:41.527Z,-11.59
2022-12-18T04:48:09.439Z,-11.61
2022-12-18T04:50:39.292Z,-11.72
2022-12-18T04:53:07.511Z,-11.82
2022-12-18T04:55:35.441Z,-11.98
2022-12-18T04:58:03.327Z,-11.96
2022-12-18T05:00:31.224Z,-12.03
2022-12-18T05:02:59.145Z,-11.97
2022-12-18T05:05:27.071Z,-12.01
2022-12-18T05:07:56.363Z,-12.00
2022-12-18T05:10:24.271Z,-11.98
2022-12-18T05:13:01.243Z,-11.87
2022-12-18T05:15:31.079Z,-11.93
2022-12-18T05:17:59.240Z,-11.88
2022-12-18T05:20:28.044Z,-11.85
2022-12-18T05:22:57.884Z,-11.93
2022-12-18T05:25:26.238Z,-11.99
2022-12-18T05:27:54.127Z,-12.00
2022-12-18T05:30:22.104Z,-11.99
2022-12-18T05:32:49.979Z,-12.03
2022-12-18T05:35:17.983Z,-12.00
2022-12-18T05:37:45.894Z,-12.11
2022-12-18T05:40:15.247Z,-12.03
2022-12-18T05:42:43.184Z,-11.91
2022-12-18T05:45:11.590Z,-11.94
2022-12-18T05:47:39.464Z,-12.08
2022-12-18T05:50:09.019Z,-12.09
2022-12-18T05:52:37.059Z,-12.23
2022-12-18T05:55:05.443Z,-12.34
2022-12-18T05:57:34.739Z,-12.35
2022-12-18T06:00:02.623Z,-12.32
2022-12-18T06:02:30.608Z,-12.26
2022-12-18T06:04:58.493Z,-12.30
2022-12-18T06:07:26.407Z,-12.34
2022-12-18T06:09:54.332Z,-12.33
2022-12-18T06:12:22.244Z,-12.43
2022-12-18T06:14:51.534Z,-12.57
2022-12-18T06:17:19.505Z,-12.57
2022-12-18T06:19:47.393Z,-12.53
2022-12-18T06:22:15.300Z,-12.34
2022-12-18T06:24:43.204Z,-12.12
2022-12-18T06:27:11.132Z,-12.27
2022-12-18T06:29:39.045Z,-12.24
2022-12-18T06:32:08.554Z,-12.13
2022-12-18T06:34:36.531Z,-12.08
2022-12-18T06:37:04.440Z,-12.07
2022-12-18T06:39:32.369Z,-11.97
2022-12-18T06:42:00.276Z,-12.11
2022-12-18T06:44:28.192Z,-12.20
2022-12-18T06:46:56.093Z,-12.17
2022-12-18T06:49:30.316Z,-11.90
2022-12-18T06:51:58.692Z,-11.98
2022-12-18T06:54:26.645Z,-12.19
2022-12-18T06:56:57.173Z,-12.32
2022-12-18T06:59:25.111Z,-12.37
2022-12-18T07:01:54.027Z,-12.27
2022-12-18T07:04:22.126Z,-12.33
2022-12-18T07:06:51.349Z,-12.19
2022-12-18T07:09:19.241Z,-12.16
2022-12-18T07:11:47.121Z,-12.15
2022-12-18T07:14:15.032Z,-12.01
2022-12-18T07:16:43.057Z,-11.99
2022-12-18T07:19:11.020Z,-11.86
2022-12-18T07:21:38.913Z,-11.80
2022-12-18T07:24:09.423Z,-11.87
2022-12-18T07:26:37.359Z,-11.90
2022-12-18T07:29:05.311Z,-11.94
2022-12-18T07:31:33.253Z,-11.83
2022-12-18T07:34:01.301Z,-11.86
2022-12-18T07:36:29.244Z,-11.88
2022-12-18T07:38:57.201Z,-11.54
2022-12-18T07:41:26.482Z,-11.51
2022-12-18T07:43:54.522Z,-11.47
2022-12-18T07:46:22.543Z,-11.44
2022-12-18T07:48:50.617Z,-11.42
2022-12-18T07:51:19.153Z,-11.40
2022-12-18T07:53:49.618Z,-11.12
2022-12-18T07:56:29.454Z,-10.74
2022-12-18T07:58:59.883Z,-10.22
2022-12-18T08:01:27.964Z,-9.96
2022-12-18T08:03:56.106Z,-9.64
2022-12-18T08:06:24.759Z,-9.45
2022-12-18T08:08:54.418Z,-9.30
2022-12-18T08:11:22.538Z,-9.33
2022-12-18T08:13:50.657Z,-9.10
2022-12-18T08:16:20.738Z,-8.89
2022-12-18T08:18:49.650Z,-8.75
2022-12-18T08:21:19.125Z,-8.63
2022-12-18T08:23:49.254Z,-8.49
2022-12-18T08:26:19.499Z,-8.36
2022-12-18T08:28:48.820Z,-8.15
2022-12-18T08:31:19.057Z,-8.04
2022-12-18T08:33:47.088Z,-7.90
2022-12-18T08:36:15.074Z,-7.82
2022-12-18T08:38:42.984Z,-7.79
2022-12-18T08:41:13.632Z,-7.51
2022-12-18T08:43:58.937Z,-7.57
2022-12-18T08:46:29.698Z,-7.54
2022-12-18T08:48:57.899Z,-7.44
2022-12-18T08:51:25.881Z,-7.15
2022-12-18T08:53:53.750Z,-6.80
2022-12-18T08:56:21.631Z,-6.72
2022-12-18T08:58:49.563Z,-6.36
2022-12-18T09:01:17.527Z,-6.05
2022-12-18T09:03:49.470Z,-5.83
2022-12-18T09:06:18.426Z,-5.68
2022-12-18T09:08:49.735Z,-5.78
2022-12-18T09:11:21.682Z,-5.61
2022-12-18T09:13:49.576Z,-5.56
2022-12-18T09:16:17.717Z,-5.47
2022-12-18T09:18:47.193Z,-5.06
2022-12-18T09:21:16.656Z,-4.98
2022-12-18T09:23:44.843Z,-4.69
2022-12-18T09:26:12.846Z,-4.62
2022-12-18T09:28:41.009Z,-4.32
2022-12-18T09:31:10.173Z,-4.10
2022-12-18T09:33:38.197Z,-3.80
2022-12-18T09:36:09.470Z,-4.80
2022-12-18T09:38:37.662Z,-4.68
2022-12-18T09:41:11.016Z,-4.14
2022-12-18T09:43:45.584Z,-4.56
2022-12-18T09:46:18.521Z,-3.83
2022-12-18T09:48:49.562Z,-3.71
2022-12-18T09:51:21.079Z,-4.42
2022-12-18T09:53:53.996Z,-4.35
2022-12-18T09:56:23.915Z,-3.52
2022-12-18T09:58:57.620Z,-3.01
2022-12-18T10:01:31.973Z,-2.75
2022-12-18T10:04:10.413Z,-2.60
2022-12-18T10:06:43.484Z,-2.54
2022-12-18T10:09:20.255Z,-1.83
2022-12-18T10:11:54.799Z,-1.45
2022-12-18T10:14:27.507Z,-1.85
2022-12-18T10:17:02.842Z,-1.90
2022-12-18T10:19:41.905Z,-1.96
2022-12-18T10:22:23.695Z,-1.86
2022-12-18T10:24:57.652Z,-1.87
2022-12-18T10:27:28.624Z,-2.15
2022-12-18T10:29:56.628Z,-2.16
2022-12-18T10:32:26.132Z,-2.57
2022-12-18T10:35:00.086Z,-2.36
2022-12-18T10:37:31.707Z,-2.32
2022-12-18T10:40:18.252Z,-2.37
2022-12-18T10:42:52.305Z,-2.53
2022-12-18T10:45:21.036Z,-2.88
2022-12-18T10:47:52.283Z,-2.61
2022-12-18T10:51:01.786Z,-2.77
2022-12-18T10:53:24.549Z,-2.54
2022-12-18T10:55:54.668Z,-2.70
2022-12-18T10:58:26.859Z,-2.60
2022-12-18T11:01:21.217Z,-2.93
2022-12-18T11:04:02.666Z,-2.95
2022-12-18T11:06:33.972Z,-2.59
2022-12-18T11:09:13.180Z,-2.70
2022-12-18T11:11:43.244Z,-2.97
2022-12-18T11:14:17.651Z,-2.89
2022-12-18T11:17:23.860Z,-2.80
2022-12-18T11:19:37.481Z,-3.13
2022-12-18T11:22:20.972Z,-3.10
2022-12-18T11:25:22.816Z,-3.05
2022-12-18T11:27:49.895Z,-2.99
2022-12-18T11:30:24.148Z,-3.09
2022-12-18T11:32:53.406Z,-3.05
2022-12-18T11:35:24.138Z,-3.20
2022-12-18T11:37:58.575Z,-3.27
2022-12-18T11:40:35.403Z,-3.24
2022-12-18T11:43:11.992Z,-3.41
2022-12-18T11:45:43.537Z,-3.43
2022-12-18T11:48:17.077Z,-3.27
2022-12-18T11:50:50.156Z,-3.17
2022-12-18T11:53:18.346Z,-3.17
2022-12-18T11:55:54.950Z,-3.26
2022-12-18T11:58:31.894Z,-3.38
2022-12-18T12:01:15.894Z,-3.22
2022-12-18T12:04:05.291Z,-3.29
2022-12-18T12:06:36.748Z,-3.28
2022-12-18T12:09:11.362Z,-3.17
2022-12-18T12:11:51.227Z,-3.13
2022-12-18T12:14:29.292Z,-3.19
2022-12-18T12:17:00.563Z,-3.09
2022-12-18T12:19:36.920Z,-3.17
2022-12-18T12:22:11.287Z,-3.30
2022-12-18T12:24:49.391Z,-3.40
2022-12-18T12:27:23.466Z,-3.24
2022-12-18T12:30:00.466Z,-3.32
2022-12-18T12:32:42.751Z,-3.32
2022-12-18T12:35:19.086Z,-3.40
2022-12-18T12:37:54.626Z,-3.49
2022-12-18T12:43:21.757Z,-3.53
2022-12-18T12:45:52.664Z,-3.65
2022-12-18T12:48:29.891Z,-3.65
2022-12-18T12:50:59.894Z,-3.29
2022-12-18T12:53:32.986Z,-3.44
2022-12-18T12:56:01.026Z,-3.38
2022-12-18T12:58:35.907Z,-3.34
2022-12-18T13:01:11.636Z,-3.48
2022-12-18T13:03:48.195Z,-3.62
2022-12-18T13:06:24.385Z,-3.74
2022-12-18T13:08:57.878Z,-3.81
2022-12-18T13:11:52.554Z,-3.89
2022-12-18T13:14:29.573Z,-3.80
2022-12-18T13:17:32.001Z,-3.96
2022-12-18T13:20:11.699Z,-3.87
2022-12-18T13:22:42.864Z,-4.09
2022-12-18T13:25:34.716Z,-4.13
2022-12-18T13:28:14.225Z,-4.21
2022-12-18T13:30:59.447Z,-4.22
2022-12-18T13:36:39.298Z,-4.39
2022-12-18T13:39:34.246Z,-4.42
2022-12-18T13:43:05.719Z,-4.37
2022-12-18T13:45:43.735Z,-4.46
2022-12-18T13:48:19.698Z,-4.62
2022-12-18T13:51:01.462Z,-4.62
2022-12-18T13:53:32.973Z,-4.62
2022-12-18T13:56:00.964Z,-4.62
2022-12-18T13:58:28.998Z,-4.80
2022-12-18T14:00:57.685Z,-4.83
2022-12-18T14:03:28.711Z,-4.95
2022-12-18T14:06:01.006Z,-5.16
2022-12-18T14:08:35.067Z,-5.12
2022-12-18T14:11:03.597Z,-5.29
2022-12-18T14:13:35.133Z,-5.38
2022-12-18T14:16:05.127Z,-5.50
2022-12-18T14:18:41.546Z,-5.63
2022-12-18T14:21:20.061Z,-5.76
2022-12-18T14:23:48.149Z,-5.75
2022-12-18T14:26:26.358Z,-5.81
2022-12-18T14:28:54.899Z,-5.90
2022-12-18T14:31:25.050Z,-5.96
2022-12-18T14:33:55.119Z,-5.99
2022-12-18T14:36:25.059Z,-6.08
2022-12-18T14:38:54.743Z,-6.11
2022-12-18T14:41:23.804Z,-6.21
2022-12-18T14:43:53.325Z,-6.29
2022-12-18T14:46:35.130Z,-6.34
2022-12-18T14:49:06.724Z,-6.35
2022-12-18T14:51:35.789Z,-6.44
2022-12-18T14:54:05.622Z,-6.46
2022-12-18T14:56:34.643Z,-6.48
2022-12-18T14:59:04.366Z,-6.50
2022-12-18T15:01:35.577Z,-6.51
2022-12-18T15:04:05.926Z,-6.52
2022-12-18T15:06:35.850Z,-6.54
2022-12-18T15:09:05.865Z,-6.48
2022-12-18T15:11:46.982Z,-6.46
2022-12-18T15:14:35.775Z,-6.44
2022-12-18T15:17:06.129Z,-6.43
2022-12-18T15:19:39.725Z,-6.42
2022-12-18T15:22:20.375Z,-6.42
2022-12-18T15:24:50.334Z,-6.38
2022-12-18T15:27:34.391Z,-6.33
2022-12-18T15:30:19.040Z,-6.34
2022-12-18T15:32:47.561Z,-6.30
2022-12-18T15:35:22.133Z,-6.36
2022-12-18T15:37:51.055Z,-6.32
2022-12-18T15:40:21.437Z,-6.29
2022-12-18T15:43:07.816Z,-6.27
2022-12-18T15:45:36.276Z,-6.25
2022-12-18T15:48:07.479Z,-6.25
2022-12-18T15:50:36.790Z,-6.24
2022-12-18T15:53:04.779Z,-6.33
2022-12-18T15:55:53.337Z,-6.32
2022-12-18T15:58:23.199Z,-6.29
2022-12-18T16:00:51.097Z,-6.29
2022-12-18T16:03:19.036Z,-6.28
2022-12-18T16:05:48.371Z,-6.24
2022-12-18T16:08:16.239Z,-6.22
2022-12-18T16:10:44.225Z,-6.26
2022-12-18T16:13:12.432Z,-6.21
2022-12-18T16:15:40.516Z,-6.27
2022-12-18T16:18:08.711Z,-6.26
2022-12-18T16:20:36.646Z,-6.20
2022-12-18T16:23:05.994Z,-6.23
2022-12-18T16:25:34.246Z,-6.22
2022-12-18T16:28:02.143Z,-6.27
2022-12-18T16:30:35.796Z,-6.20
2022-12-18T16:33:10.906Z,-6.18
2022-12-18T16:35:43.214Z,-6.22
2022-12-18T16:38:12.560Z,-6.20
2022-12-18T16:41:01.879Z,-6.29
2022-12-18T16:43:29.841Z,-6.36
2022-12-18T16:45:58.523Z,-6.30
2022-12-18T16:48:31.227Z,-6.31
2022-12-18T16:51:03.590Z,-6.38
2022-12-18T16:53:34.331Z,-6.35
2022-12-18T16:56:03.107Z,-6.29
2022-12-18T16:58:33.040Z,-6.34
2022-12-18T17:01:01.451Z,-6.20
2022-12-18T17:03:30.096Z,-6.15
2022-12-18T17:06:04.128Z,-6.25
2022-12-18T17:08:33.486Z,-6.25
2022-12-18T17:11:06.579Z,-6.19
2022-12-18T17:13:34.991Z,-6.12
2022-12-18T17:16:07.970Z,-6.10
2022-12-18T17:18:37.427Z,-6.11
2022-12-18T17:21:07.503Z,-5.89
2022-12-18T17:23:45.297Z,-5.82
2022-12-18T17:26:14.283Z,-5.83
2022-12-18T17:28:45.188Z,-5.66
2022-12-18T17:31:14.885Z,-5.69
2022-12-18T17:33:44.550Z,-5.61
2022-12-18T17:36:15.394Z,-5.43
2022-12-18T17:38:46.370Z,-5.45
2022-12-18T17:41:15.581Z,-5.24
2022-12-18T17:43:50.948Z,-5.15
2022-12-18T17:46:19.845Z,-5.06
2022-12-18T17:48:51.329Z,-5.00
2022-12-18T17:51:20.580Z,-5.20
2022-12-18T17:54:01.392Z,-5.13
2022-12-18T17:56:30.089Z,-5.08
2022-12-18T17:58:59.331Z,-5.26
2022-12-18T18:01:27.727Z,-5.25
2022-12-18T18:03:57.023Z,-5.02
2022-12-18T18:06:25.473Z,-5.02
2022-12-18T18:08:55.214Z,-5.18
2022-12-18T18:11:42.070Z,-5.15
2022-12-18T18:14:14.535Z,-5.31
2022-12-18T18:16:44.211Z,-5.30
2022-12-18T18:19:13.938Z,-5.32
2022-12-18T18:21:43.154Z,-5.27
2022-12-18T18:24:15.106Z,-4.93
2022-12-18T18:26:43.067Z,-4.92
2022-12-18T18:29:14.676Z,-5.31
2022-12-18T18:31:43.019Z,-5.18
2022-12-18T18:34:15.599Z,-5.31
2022-12-18T18:36:43.650Z,-5.44
2022-12-18T18:39:12.918Z,-5.35
2022-12-18T18:41:40.870Z,-5.25
2022-12-18T18:44:11.339Z,-5.22
2022-12-18T18:46:39.248Z,-5.23
2022-12-18T18:49:07.976Z,-5.11
2022-12-18T18:51:35.870Z,-5.13
2022-12-18T18:54:04.061Z,-5.09
2022-12-18T18:56:56.197Z,-5.17
2022-12-18T18:59:24.990Z,-5.13
2022-12-18T19:01:59.963Z,-5.08
2022-12-18T19:04:32.718Z,-5.10
2022-12-18T19:07:00.605Z,-5.14
2022-12-18T19:09:28.745Z,-5.12
2022-12-18T19:12:27.424Z,-5.14
2022-12-18T19:14:55.416Z,-5.16
2022-12-18T19:17:28.071Z,-5.17
2022-12-18T19:19:57.690Z,-5.13
2022-12-18T19:22:25.612Z,-5.13
2022-12-18T19:24:53.513Z,-5.12
2022-12-18T19:27:22.825Z,-5.12
2022-12-18T19:29:50.801Z,-5.01
2022-12-18T19:32:18.759Z,-5.02
2022-12-18T19:34:47.505Z,-5.07
2022-12-18T19:37:16.250Z,-5.01
2022-12-18T19:39:44.277Z,-5.01
2022-12-18T19:42:12.201Z,-5.02
2022-12-18T19:44:42.695Z,-4.97
2022-12-18T19:47:10.621Z,-5.00
2022-12-18T19:49:38.795Z,-5.02
2022-12-18T19:52:06.875Z,-4.91
2022-12-18T19:54:34.813Z,-4.87
2022-12-18T19:57:02.705Z,-4.92
2022-12-18T19:59:30.579Z,-4.85
2022-12-18T20:01:59.972Z,-4.85
2022-12-18T20:04:28.091Z,-4.87
2022-12-18T20:06:56.275Z,-4.91
2022-12-18T20:09:24.359Z,-4.96
2022-12-18T20:11:53.054Z,-4.91
2022-12-18T20:14:23.512Z,-4.87
2022-12-18T20:16:52.605Z,-4.89
2022-12-18T20:19:22.948Z,-4.91
2022-12-18T20:21:51.149Z,-4.85
2022-12-18T20:24:19.051Z,-4.89
2022-12-18T20:26:47.083Z,-4.81
2022-12-18T20:29:15.008Z,-4.84
2022-12-18T20:31:43.024Z,-4.76
2022-12-18T20:34:11.037Z,-4.86
2022-12-18T20:36:41.092Z,-4.88
2022-12-18T20:39:10.888Z,-4.87
2022-12-18T20:41:40.168Z,-4.90
2022-12-18T20:44:21.475Z,-4.87
2022-12-18T20:46:52.016Z,-4.89
2022-12-18T20:49:19.943Z,-4.82
2022-12-18T20:51:52.612Z,-4.83
2022-12-18T20:54:21.007Z,-4.89
2022-12-18T20:56:48.968Z,-4.82
2022-12-18T20:59:16.912Z,-4.83
2022-12-18T21:01:46.041Z,-4.86
2022-12-18T21:04:18.369Z,-4.79
2022-12-18T21:06:51.453Z,-4.75
2022-12-18T21:09:22.512Z,-4.80
2022-12-18T21:12:08.340Z,-4.76
2022-12-18T21:14:38.277Z,-4.77
2022-12-18T21:17:06.460Z,-4.84
2022-12-18T21:19:34.365Z,-4.85
2022-12-18T21:22:03.281Z,-4.77
2022-12-18T21:24:32.883Z,-4.66
2022-12-18T21:27:01.846Z,-4.60
2022-12-18T21:29:29.891Z,-4.58
2022-12-18T21:31:57.958Z,-4.55
2022-12-18T21:34:28.212Z,-4.59
2022-12-18T21:36:57.815Z,-4.73
2022-12-18T21:39:26.465Z,-4.69
2022-12-18T21:42:13.739Z,-4.64
2022-12-18T21:44:42.596Z,-4.72
2022-12-18T21:47:20.904Z,-4.69
2022-12-18T21:49:51.795Z,-4.71
2022-12-18T21:52:20.006Z,-4.66
2022-12-18T21:54:50.073Z,-4.67
2022-12-18T21:57:19.781Z,-4.68
2022-12-18T21:59:48.802Z,-4.58
2022-12-18T22:02:17.895Z,-4.58
2022-12-18T22:04:46.990Z,-4.46
2022-12-18T22:07:16.035Z,-4.51
2022-12-18T22:09:44.051Z,-4.56
2022-12-18T22:12:33.998Z,-4.46
2022-12-18T22:15:04.430Z,-4.39
2022-12-18T22:17:32.364Z,-4.43
2022-12-18T22:20:00.308Z,-4.47
2022-12-18T22:22:28.445Z,-4.45
2022-12-18T22:24:56.352Z,-4.45
2022-12-18T22:27:24.240Z,-4.49
2022-12-18T22:30:06.162Z,-4.47
2022-12-18T22:32:36.516Z,-4.46
2022-12-18T22:35:12.923Z,-4.44
2022-12-18T22:37:43.584Z,-4.47
2022-12-18T22:40:14.860Z,-4.43
2022-12-18T22:42:44.965Z,-4.39
2022-12-18T22:45:14.324Z,-4.35
2022-12-18T22:47:43.608Z,-4.38
2022-12-18T22:50:13.863Z,-4.39
2022-12-18T22:52:41.880Z,-4.15
2022-12-18T22:55:10.119Z,-4.04
2022-12-18T22:57:38.043Z,-4.34
2022-12-18T23:00:09.552Z,-4.37
2022-12-18T23:02:37.587Z,-4.29
2022-12-18T23:05:07.620Z,-4.03
2022-12-18T23:07:35.532Z,-4.24
2022-12-18T23:10:03.446Z,-4.30
2022-12-18T23:12:31.310Z,-4.33
2022-12-18T23:15:01.235Z,-4.56
2022-12-18T23:17:29.887Z,-4.61
2022-12-18T23:19:57.755Z,-4.63
2022-12-18T23:22:27.622Z,-4.60
2022-12-18T23:24:55.499Z,-4.68
2022-12-18T23:27:23.553Z,-4.80
2022-12-18T23:29:51.436Z,-4.82
2022-12-18T23:32:20.604Z,-4.91
2022-12-18T23:34:48.493Z,-4.94
2022-12-18T23:37:35.348Z,-4.97
2022-12-18T23:40:06.549Z,-5.03
2022-12-18T23:42:34.486Z,-5.12
2022-12-18T23:45:04.502Z,-5.27
2022-12-18T23:47:46.334Z,-5.29
2022-12-18T23:50:18.871Z,-5.27
2022-12-18T23:52:50.076Z,-5.29
2022-12-18T23:55:19.358Z,-5.43
2022-12-18T23:57:47.295Z,-5.03
